createdAt,value
2019-06-10T00:00:41.893Z,100856.31
2019-06-10T00:03:11.543Z,100858.09
2019-06-10T00:05:41.556Z,100857.52
2019-06-10T00:08:11.912Z,100851.03
2019-06-10T00:10:42.208Z,100850.38
2019-06-10T00:13:11.757Z,100844.31
2019-06-10T00:15:41.088Z,100838.55
2019-06-10T00:18:32.901Z,100827.33
2019-06-10T00:20:41.176Z,100826.45
2019-06-10T00:23:12.005Z,100819.20
2019-06-10T00:25:41.491Z,100832.66
2019-06-10T00:28:12.193Z,100826.32
2019-06-10T00:30:41.628Z,100821.76
2019-06-10T00:33:12.582Z,100829.14
2019-06-10T00:35:41.394Z,100815.39
2019-06-10T00:38:13.852Z,100810.42
2019-06-10T00:40:41.558Z,100815.80
2019-06-10T00:43:13.270Z,100809.11
2019-06-10T00:45:41.472Z,100799.87
2019-06-10T00:48:21.117Z,100802.83
2019-06-10T00:50:41.557Z,100796.97
2019-06-10T00:53:14.151Z,100791.44
2019-06-10T00:55:41.845Z,100793.70
2019-06-10T00:58:13.435Z,100783.92
2019-06-10T01:00:41.539Z,100779.97
2019-06-10T01:03:14.591Z,100775.63
2019-06-10T01:05:42.020Z,100775.23
2019-06-10T01:08:13.967Z,100780.63
2019-06-10T01:10:43.669Z,100775.02
2019-06-10T01:13:14.045Z,100780.45
2019-06-10T01:15:42.623Z,100776.61
2019-06-10T01:18:28.686Z,100774.48
2019-06-10T01:20:41.711Z,100765.33
2019-06-10T01:23:13.562Z,100763.88
2019-06-10T01:25:42.181Z,100762.47
2019-06-10T01:28:14.575Z,100757.80
2019-06-10T01:30:41.678Z,100756.33
2019-06-10T01:33:12.317Z,100756.39
2019-06-10T01:35:41.588Z,100747.58
2019-06-10T01:38:12.838Z,100746.38
2019-06-10T01:40:42.301Z,100743.22
2019-06-10T01:43:14.026Z,100745.43
2019-06-10T01:45:41.948Z,100746.25
2019-06-10T01:48:12.066Z,100743.20
2019-06-10T01:50:41.452Z,100731.87
2019-06-10T01:53:14.087Z,100726.67
2019-06-10T01:55:41.915Z,100720.39
2019-06-10T01:58:14.673Z,100725.53
2019-06-10T02:00:50.777Z,100718.51
2019-06-10T02:03:23.684Z,100721.72
2019-06-10T02:05:51.708Z,100714.98
2019-06-10T02:08:22.175Z,100717.27
2019-06-10T02:10:51.095Z,100710.16
2019-06-10T02:13:31.992Z,100711.02
2019-06-10T02:16:01.730Z,100703.55
2019-06-10T02:18:32.011Z,100694.36
2019-06-10T02:21:01.269Z,100685.45
2019-06-10T02:23:31.519Z,100685.65
2019-06-10T02:26:01.433Z,100676.54
2019-06-10T02:28:31.845Z,100675.48
2019-06-10T02:31:02.987Z,100669.62
2019-06-10T02:33:35.952Z,100658.96
2019-06-10T02:36:04.316Z,100662.11
2019-06-10T02:38:36.815Z,100661.38
2019-06-10T02:41:04.740Z,100653.06
2019-06-10T02:43:37.567Z,100650.13
2019-06-10T02:46:05.469Z,100650.77
2019-06-10T02:48:35.334Z,100647.16
2019-06-10T02:51:05.840Z,100648.97
2019-06-10T02:53:37.047Z,100647.86
2019-06-10T02:56:07.719Z,100640.60
2019-06-10T02:58:39.390Z,100634.75
2019-06-10T03:01:07.330Z,100632.54
2019-06-10T03:03:43.919Z,100643.19
2019-06-10T03:06:08.703Z,100646.38
2019-06-10T03:08:37.141Z,100647.40
2019-06-10T03:11:05.700Z,100641.02
2019-06-10T03:13:34.427Z,100645.98
2019-06-10T03:16:25.922Z,100645.50
2019-06-10T03:18:54.552Z,100646.97
2019-06-10T03:21:25.671Z,100655.10
2019-06-10T03:23:53.739Z,100649.38
2019-06-10T03:26:25.273Z,100652.34
2019-06-10T03:28:52.820Z,100651.59
2019-06-10T03:31:28.262Z,100639.64
2019-06-10T03:33:54.214Z,100639.36
2019-06-10T03:36:23.138Z,100642.78
2019-06-10T03:38:53.695Z,100652.17
2019-06-10T03:41:24.671Z,100640.63
2019-06-10T03:43:53.226Z,100637.17
2019-06-10T03:46:23.940Z,100628.08
2019-06-10T03:48:52.595Z,100636.56
2019-06-10T03:51:23.995Z,100633.52
2019-06-10T03:53:53.062Z,100634.53
2019-06-10T03:56:23.873Z,100638.82
2019-06-10T03:58:52.243Z,100630.88
2019-06-10T04:01:24.361Z,100633.05
2019-06-10T04:03:53.009Z,100625.93
2019-06-10T04:06:24.192Z,100622.78
2019-06-10T04:08:52.400Z,100617.89
2019-06-10T04:11:24.048Z,100617.59
2019-06-10T04:13:53.515Z,100616.53
2019-06-10T04:16:23.955Z,100622.63
2019-06-10T04:18:53.452Z,100622.23
2019-06-10T04:21:23.718Z,100618.19
2019-06-10T04:23:52.938Z,100618.59
2019-06-10T04:26:24.079Z,100610.39
2019-06-10T04:28:53.003Z,100614.52
2019-06-10T04:31:23.797Z,100623.20
2019-06-10T04:33:52.478Z,100617.27
2019-06-10T04:36:24.675Z,100616.53
2019-06-10T04:38:52.503Z,100614.06
2019-06-10T04:41:23.424Z,100624.55
2019-06-10T04:43:53.149Z,100621.34
2019-06-10T04:46:23.660Z,100615.70
2019-06-10T04:48:53.198Z,100622.28
2019-06-10T04:51:23.897Z,100613.95
2019-06-10T04:53:52.737Z,100605.25
2019-06-10T04:56:24.226Z,100601.17
2019-06-10T04:58:52.500Z,100598.87
2019-06-10T05:01:24.006Z,100594.50
2019-06-10T05:03:52.678Z,100595.26
2019-06-10T05:06:23.846Z,100595.00
2019-06-10T05:08:53.751Z,100585.78
2019-06-10T05:11:24.234Z,100587.16
2019-06-10T05:13:53.404Z,100591.21
2019-06-10T05:16:25.521Z,100593.09
2019-06-10T05:18:54.838Z,100595.88
2019-06-10T05:21:25.060Z,100599.64
2019-06-10T05:23:53.377Z,100601.11
2019-06-10T05:26:25.081Z,100592.42
2019-06-10T05:28:52.609Z,100592.08
2019-06-10T05:31:23.237Z,100594.11
2019-06-10T05:33:53.086Z,100594.43
2019-06-10T05:36:25.680Z,100596.19
2019-06-10T05:38:52.743Z,100600.68
2019-06-10T05:41:24.134Z,100594.48
2019-06-10T05:43:52.307Z,100596.33
2019-06-10T05:46:22.750Z,100590.41
2019-06-10T05:48:52.570Z,100602.05
2019-06-10T05:51:23.187Z,100591.94
2019-06-10T05:53:52.849Z,100591.12
2019-06-10T05:56:23.689Z,100589.52
2019-06-10T05:58:52.618Z,100579.02
2019-06-10T06:01:22.937Z,100585.44
2019-06-10T06:03:52.948Z,100581.87
2019-06-10T06:06:23.012Z,100583.20
2019-06-10T06:08:53.376Z,100581.91
2019-06-10T06:11:23.134Z,100581.76
2019-06-10T06:13:52.307Z,100572.45
2019-06-10T06:16:23.033Z,100578.12
2019-06-10T06:18:52.701Z,100576.48
2019-06-10T06:21:29.190Z,100575.50
2019-06-10T06:23:52.794Z,100571.52
2019-06-10T06:26:23.639Z,100571.67
2019-06-10T06:28:53.522Z,100574.88
2019-06-10T06:31:23.186Z,100579.46
2019-06-10T06:33:52.764Z,100581.16
2019-06-10T06:36:22.575Z,100581.12
2019-06-10T06:38:53.164Z,100577.68
2019-06-10T06:41:22.754Z,100570.63
2019-06-10T06:43:53.059Z,100569.16
2019-06-10T06:46:23.362Z,100573.14
2019-06-10T06:48:53.253Z,100569.86
2019-06-10T06:51:35.852Z,100574.58
2019-06-10T06:53:56.043Z,100569.97
2019-06-10T06:56:23.254Z,100569.85
2019-06-10T06:58:52.546Z,100569.45
2019-06-10T07:01:25.489Z,100576.77
2019-06-10T07:03:53.612Z,100569.81
2019-06-10T07:06:23.058Z,100572.63
2019-06-10T07:09:04.335Z,100565.53
2019-06-10T07:11:24.902Z,100563.20
2019-06-10T07:13:54.080Z,100570.25
2019-06-10T07:16:23.161Z,100569.81
2019-06-10T07:18:54.020Z,100573.02
2019-06-10T07:21:22.940Z,100565.28
2019-06-10T07:23:52.825Z,100570.25
2019-06-10T07:26:22.153Z,100569.53
2019-06-10T07:28:53.457Z,100568.40
2019-06-10T07:31:27.585Z,100564.74
2019-06-10T07:33:52.734Z,100567.12
2019-06-10T07:36:23.543Z,100569.99
2019-06-10T07:38:53.836Z,100560.34
2019-06-10T07:41:23.224Z,100550.03
2019-06-10T07:43:53.063Z,100551.81
2019-06-10T07:46:23.089Z,100555.22
2019-06-10T07:48:55.689Z,100555.61
2019-06-10T07:51:22.795Z,100549.48
2019-06-10T07:53:52.599Z,100549.75
2019-06-10T07:56:23.363Z,100545.87
2019-06-10T07:58:52.819Z,100551.15
2019-06-10T08:01:22.969Z,100555.37
2019-06-10T08:03:52.621Z,100559.30
2019-06-10T08:06:22.938Z,100559.66
2019-06-10T08:08:53.118Z,100564.02
2019-06-10T08:11:22.869Z,100553.84
2019-06-10T08:13:53.830Z,100543.42
2019-06-10T08:16:23.572Z,100540.17
2019-06-10T08:19:20.567Z,100532.05
2019-06-10T08:21:23.142Z,100529.68
2019-06-10T08:23:54.317Z,100529.05
2019-06-10T08:26:23.317Z,100533.13
2019-06-10T08:28:53.033Z,100525.28
2019-06-10T08:31:22.652Z,100522.08
2019-06-10T08:33:53.538Z,100513.72
2019-06-10T08:36:22.513Z,100516.44
2019-06-10T08:38:52.671Z,100514.49
2019-06-10T08:41:23.084Z,100509.91
2019-06-10T08:43:52.893Z,100514.45
2019-06-10T08:46:22.575Z,100508.27
2019-06-10T08:48:52.510Z,100514.44
2019-06-10T08:51:23.666Z,100507.02
2019-06-10T08:53:53.161Z,100493.12
2019-06-10T08:56:22.520Z,100494.09
2019-06-10T08:58:53.859Z,100492.17
2019-06-10T09:01:22.291Z,100490.42
2019-06-10T09:03:53.484Z,100484.73
2019-06-10T09:06:23.041Z,100488.11
2019-06-10T09:08:54.473Z,100484.17
2019-06-10T09:11:23.675Z,100478.92
2019-06-10T09:13:53.208Z,100478.38
2019-06-10T09:16:22.815Z,100477.36
2019-06-10T09:18:54.866Z,100476.46
2019-06-10T09:21:22.443Z,100477.00
2019-06-10T09:23:59.077Z,100476.23
2019-06-10T09:26:22.900Z,100486.66
2019-06-10T09:28:56.238Z,100481.86
2019-06-10T09:31:23.818Z,100481.92
2019-06-10T09:33:56.707Z,100480.05
2019-06-10T09:36:32.496Z,100479.50
2019-06-10T09:39:03.926Z,100466.73
2019-06-10T09:41:40.956Z,100468.94
2019-06-10T09:44:03.373Z,100472.42
2019-06-10T09:46:33.905Z,100478.88
2019-06-10T09:49:04.168Z,100482.57
2019-06-10T09:51:33.211Z,100464.92
2019-06-10T09:54:06.312Z,100466.25
2019-06-10T09:56:33.123Z,100462.23
2019-06-10T09:59:03.783Z,100458.69
2019-06-10T10:01:32.822Z,100464.53
2019-06-10T10:04:01.515Z,100458.36
2019-06-10T10:06:32.555Z,100453.78
2019-06-10T10:09:03.970Z,100457.85
2019-06-10T10:11:32.424Z,100457.82
2019-06-10T10:14:06.407Z,100445.95
2019-06-10T10:16:33.942Z,100451.83
2019-06-10T10:19:05.278Z,100444.92
2019-06-10T10:21:32.581Z,100440.19
2019-06-10T10:24:07.962Z,100439.98
2019-06-10T10:26:31.600Z,100434.93
2019-06-10T10:29:02.653Z,100439.50
2019-06-10T10:31:32.425Z,100434.65
2019-06-10T10:34:02.763Z,100428.06
2019-06-10T10:36:33.537Z,100425.41
2019-06-10T10:39:04.063Z,100420.05
2019-06-10T10:41:32.613Z,100418.55
2019-06-10T10:44:03.129Z,100421.16
2019-06-10T10:46:32.592Z,100415.54
2019-06-10T10:49:02.731Z,100417.64
2019-06-10T10:51:32.695Z,100407.98
2019-06-10T10:54:20.854Z,100409.42
2019-06-10T10:56:33.920Z,100407.29
2019-06-10T10:59:03.049Z,100409.48
2019-06-10T11:01:33.360Z,100404.48
2019-06-10T11:04:03.768Z,100412.69
2019-06-10T11:06:32.575Z,100407.48
2019-06-10T11:09:01.224Z,100400.63
2019-06-10T11:11:30.425Z,100394.55
2019-06-10T11:14:03.296Z,100398.30
2019-06-10T11:16:33.000Z,100394.94
2019-06-10T11:19:02.584Z,100389.53
2019-06-10T11:21:33.006Z,100380.94
2019-06-10T11:24:04.622Z,100373.09
2019-06-10T11:26:32.992Z,100372.86
2019-06-10T11:29:02.963Z,100375.92
2019-06-10T11:31:32.811Z,100370.50
2019-06-10T11:34:03.131Z,100360.19
2019-06-10T11:36:32.751Z,100355.30
2019-06-10T11:39:02.832Z,100348.56
2019-06-10T11:41:32.514Z,100355.84
2019-06-10T11:44:01.334Z,100353.95
2019-06-10T11:46:32.344Z,100346.08
2019-06-10T11:49:00.307Z,100344.94
2019-06-10T11:51:28.824Z,100346.52
2019-06-10T11:53:58.873Z,100343.16
2019-06-10T11:56:27.632Z,100346.26
2019-06-10T11:58:58.633Z,100337.62
2019-06-10T12:01:26.805Z,100345.95
2019-06-10T12:03:57.597Z,100342.99
2019-06-10T12:06:26.028Z,100337.23
2019-06-10T12:08:58.333Z,100334.55
2019-06-10T12:11:25.308Z,100334.95
2019-06-10T12:14:00.751Z,100330.86
2019-06-10T12:18:57.034Z,100331.48
2019-06-10T12:21:25.203Z,100328.19
2019-06-10T12:23:57.694Z,100331.35
2019-06-10T12:26:24.286Z,100329.17
2019-06-10T12:28:56.229Z,100325.30
2019-06-10T12:31:23.408Z,100314.84
2019-06-10T12:33:55.332Z,100312.86
2019-06-10T12:36:23.746Z,100314.70
2019-06-10T12:38:57.463Z,100309.83
2019-06-10T12:41:23.423Z,100299.48
2019-06-10T12:43:53.071Z,100294.18
2019-06-10T12:46:23.271Z,100294.06
2019-06-10T12:48:55.427Z,100274.34
2019-06-10T12:51:23.006Z,100265.60
2019-06-10T12:53:53.187Z,100263.92
2019-06-10T12:56:22.813Z,100268.52
2019-06-10T12:58:54.067Z,100269.54
2019-06-10T13:01:22.288Z,100272.16
2019-06-10T13:03:53.645Z,100269.27
2019-06-10T13:06:23.489Z,100275.84
2019-06-10T13:08:56.197Z,100275.14
2019-06-10T13:11:24.900Z,100274.20
2019-06-10T13:13:53.437Z,100268.03
2019-06-10T13:16:22.054Z,100263.83
2019-06-10T13:18:52.474Z,100265.37
2019-06-10T13:21:22.838Z,100259.23
2019-06-10T13:23:54.184Z,100255.06
2019-06-10T13:26:23.204Z,100252.58
2019-06-10T13:28:52.632Z,100251.19
2019-06-10T13:31:23.593Z,100250.05
2019-06-10T13:33:52.912Z,100247.58
2019-06-10T13:36:25.837Z,100243.92
2019-06-10T13:38:53.227Z,100237.90
2019-06-10T13:41:22.769Z,100238.58
2019-06-10T13:43:52.849Z,100242.72
2019-06-10T13:46:24.464Z,100235.03
2019-06-10T13:48:52.663Z,100239.71
2019-06-10T13:51:21.171Z,100235.95
2019-06-10T13:53:49.801Z,100227.42
2019-06-10T13:56:42.095Z,100230.93
2019-06-10T13:58:48.798Z,100222.27
2019-06-10T14:01:21.879Z,100221.80
2019-06-10T14:03:48.369Z,100218.72
2019-06-10T14:06:34.030Z,100216.42
2019-06-10T14:08:47.598Z,100213.83
2019-06-10T14:11:16.152Z,100218.53
2019-06-10T14:13:44.673Z,100219.94
2019-06-10T14:16:15.040Z,100217.14
2019-06-10T14:18:43.868Z,100207.09
2019-06-10T14:21:18.024Z,100203.00
2019-06-10T14:23:42.935Z,100203.09
2019-06-10T14:26:16.670Z,100202.05
2019-06-10T14:28:44.408Z,100204.23
2019-06-10T14:31:35.546Z,100192.11
2019-06-10T14:33:43.075Z,100185.58
2019-06-10T14:36:15.041Z,100188.08
2019-06-10T14:38:42.235Z,100191.28
2019-06-10T14:41:12.195Z,100189.52
2019-06-10T14:43:42.444Z,100182.45
2019-06-10T14:46:14.415Z,100185.81
2019-06-10T14:48:42.647Z,100182.38
2019-06-10T14:51:14.019Z,100189.25
2019-06-10T14:53:42.809Z,100189.08
2019-06-10T14:56:14.891Z,100186.06
2019-06-10T14:58:42.526Z,100188.39
2019-06-10T15:01:17.742Z,100194.47
2019-06-10T15:03:42.929Z,100192.64
2019-06-10T15:06:11.900Z,100189.59
2019-06-10T15:08:42.727Z,100194.27
2019-06-10T15:11:11.668Z,100193.13
2019-06-10T15:13:43.301Z,100192.55
2019-06-10T15:16:12.176Z,100198.33
2019-06-10T15:18:43.204Z,100194.19
2019-06-10T15:21:11.581Z,100193.69
2019-06-10T15:23:42.747Z,100186.33
2019-06-10T15:26:14.094Z,100176.28
2019-06-10T15:28:42.739Z,100176.63
2019-06-10T15:31:14.444Z,100175.95
2019-06-10T15:33:42.998Z,100175.14
2019-06-10T15:36:13.104Z,100165.35
2019-06-10T15:38:44.031Z,100164.84
2019-06-10T15:41:16.067Z,100161.20
2019-06-10T15:43:43.045Z,100158.52
2019-06-10T15:46:12.937Z,100150.46
2019-06-10T15:48:43.007Z,100148.97
2019-06-10T15:51:13.918Z,100142.59
2019-06-10T15:53:43.081Z,100137.33
2019-06-10T15:56:23.761Z,100131.87
2019-06-10T15:58:43.001Z,100127.12
2019-06-10T16:01:14.457Z,100126.35
2019-06-10T16:03:42.464Z,100129.05
2019-06-10T16:06:12.161Z,100127.09
2019-06-10T16:08:42.951Z,100134.70
2019-06-10T16:11:16.292Z,100132.84
2019-06-10T16:13:42.998Z,100131.13
2019-06-10T16:16:12.775Z,100132.96
2019-06-10T16:18:42.394Z,100125.08
2019-06-10T16:21:13.259Z,100125.48
2019-06-10T16:23:42.997Z,100130.02
2019-06-10T16:26:13.096Z,100128.11
2019-06-10T16:28:42.997Z,100129.84
2019-06-10T16:31:13.149Z,100130.70
2019-06-10T16:33:49.226Z,100130.55
2019-06-10T16:36:12.546Z,100134.12
2019-06-10T16:38:42.288Z,100130.69
2019-06-10T16:41:13.078Z,100136.10
2019-06-10T16:43:42.886Z,100153.44
2019-06-10T16:46:11.553Z,100149.09
2019-06-10T16:48:40.079Z,100157.89
2019-06-10T16:51:08.680Z,100162.81
2019-06-10T16:53:37.299Z,100176.66
2019-06-10T16:56:05.956Z,100181.88
2019-06-10T16:58:34.589Z,100186.48
2019-06-10T17:01:04.225Z,100178.36
2019-06-10T17:03:33.843Z,100175.63
2019-06-10T17:06:03.678Z,100171.06
2019-06-10T17:08:33.463Z,100171.98
2019-06-10T17:11:03.327Z,100159.00
2019-06-10T17:13:32.146Z,100164.50
2019-06-10T17:16:03.168Z,100158.64
2019-06-10T17:18:33.598Z,100158.20
2019-06-10T17:21:03.240Z,100162.61
2019-06-10T17:23:36.231Z,100171.22
2019-06-10T17:26:03.004Z,100180.80
2019-06-10T17:28:36.459Z,100187.91
2019-06-10T17:31:03.742Z,100185.13
2019-06-10T17:33:35.832Z,100181.98
2019-06-10T17:36:03.747Z,100182.28
2019-06-10T17:38:32.496Z,100177.73
2019-06-10T17:41:02.946Z,100181.16
2019-06-10T17:43:34.070Z,100179.87
2019-06-10T17:46:03.376Z,100182.02
2019-06-10T17:48:33.694Z,100184.62
2019-06-10T17:51:02.660Z,100182.48
2019-06-10T17:53:34.764Z,100174.43
2019-06-10T17:56:03.337Z,100172.65
2019-06-10T17:58:49.025Z,100163.30
2019-06-10T18:01:02.961Z,100160.69
2019-06-10T18:03:31.756Z,100168.09
2019-06-10T18:06:02.815Z,100167.22
2019-06-10T18:08:34.619Z,100163.43
2019-06-10T18:11:03.240Z,100157.94
2019-06-10T18:13:33.115Z,100158.36
2019-06-10T18:16:02.931Z,100158.58
2019-06-10T18:18:36.643Z,100159.73
2019-06-10T18:21:03.415Z,100158.95
2019-06-10T18:23:33.140Z,100161.31
2019-06-10T18:26:03.289Z,100161.58
2019-06-10T18:28:34.573Z,100179.56
2019-06-10T18:31:02.761Z,100179.56
2019-06-10T18:33:34.184Z,100184.38
2019-06-10T18:36:01.881Z,100185.20
2019-06-10T18:38:33.979Z,100189.80
2019-06-10T18:41:03.175Z,100197.56
2019-06-10T18:43:32.602Z,100205.72
2019-06-10T18:46:03.429Z,100214.19
2019-06-10T18:48:35.978Z,100211.34
2019-06-10T18:51:03.171Z,100207.20
2019-06-10T18:53:33.579Z,100207.20
2019-06-10T18:56:02.417Z,100202.38
2019-06-10T18:58:34.060Z,100202.36
2019-06-10T19:01:07.204Z,100195.92
2019-06-10T19:03:34.714Z,100190.98
2019-06-10T19:06:02.966Z,100173.82
2019-06-10T19:08:34.264Z,100164.38
2019-06-10T19:11:02.553Z,100165.41
2019-06-10T19:13:33.675Z,100171.52
2019-06-10T19:16:02.437Z,100174.09
2019-06-10T19:18:31.911Z,100171.82
2019-06-10T19:21:03.581Z,100163.67
2019-06-10T19:23:33.445Z,100174.66
2019-06-10T19:26:02.987Z,100180.86
2019-06-10T19:28:33.896Z,100165.44
2019-06-10T19:31:02.605Z,100165.44
2019-06-10T19:33:34.069Z,100172.43
2019-06-10T19:36:02.289Z,100172.43
2019-06-10T19:38:32.495Z,100165.91
2019-06-10T19:41:02.868Z,100170.03
2019-06-10T19:43:34.611Z,100185.61
2019-06-10T19:46:04.324Z,100200.22
2019-06-10T19:48:35.272Z,100194.31
2019-06-10T19:51:03.322Z,100201.05
2019-06-10T19:53:33.022Z,100203.23
2019-06-10T19:56:02.760Z,100192.98
2019-06-10T19:58:32.398Z,100181.41
2019-06-10T20:01:01.069Z,100191.52
2019-06-10T20:03:29.782Z,100209.06
2019-06-10T20:05:58.416Z,100215.00
2019-06-10T20:08:27.112Z,100206.53
2019-06-10T20:10:55.800Z,100213.24
2019-06-10T20:13:24.504Z,100207.78
2019-06-10T20:15:53.345Z,100214.09
2019-06-10T20:18:22.630Z,100230.89
2019-06-10T20:20:54.010Z,100251.45
2019-06-10T20:23:21.979Z,100252.03
2019-06-10T20:25:52.554Z,100251.95
2019-06-10T20:28:22.421Z,100266.70
2019-06-10T20:30:53.033Z,100262.30
2019-06-10T20:33:38.529Z,100254.25
2019-06-10T20:36:13.604Z,100248.47
2019-06-10T20:38:38.492Z,100250.30
2019-06-10T20:41:08.399Z,100255.42
2019-06-10T20:43:37.349Z,100249.70
2019-06-10T20:46:06.250Z,100250.80
2019-06-10T20:48:34.839Z,100253.39
2019-06-10T20:51:03.643Z,100259.12
2019-06-10T20:53:33.733Z,100254.91
2019-06-10T20:56:03.778Z,100259.08
2019-06-10T20:58:33.141Z,100261.95
2019-06-10T21:01:04.688Z,100258.00
2019-06-10T21:03:32.544Z,100245.20
2019-06-10T21:06:03.036Z,100242.68
2019-06-10T21:08:33.197Z,100243.09
2019-06-10T21:11:03.177Z,100245.06
2019-06-10T21:13:32.919Z,100243.06
2019-06-10T21:16:03.749Z,100254.52
2019-06-10T21:18:33.058Z,100248.83
2019-06-10T21:21:01.938Z,100243.05
2019-06-10T21:23:30.434Z,100227.30
2019-06-10T21:25:59.094Z,100222.80
2019-06-10T21:28:27.637Z,100230.69
2019-06-10T21:30:58.775Z,100237.85
2019-06-10T21:33:26.828Z,100254.44
2019-06-10T21:35:55.460Z,100261.30
2019-06-10T21:38:23.974Z,100255.08
2019-06-10T21:40:54.094Z,100251.16
2019-06-10T21:43:22.864Z,100260.56
2019-06-10T21:45:57.528Z,100270.84
2019-06-10T21:48:22.968Z,100279.88
2019-06-10T21:50:54.591Z,100279.42
2019-06-10T21:53:22.434Z,100279.29
2019-06-10T21:55:53.556Z,100277.84
2019-06-10T21:58:22.597Z,100279.02
2019-06-10T22:01:03.325Z,100273.91
2019-06-10T22:03:23.385Z,100264.26
2019-06-10T22:05:53.686Z,100261.27
2019-06-10T22:08:22.388Z,100267.47
2019-06-10T22:10:54.618Z,100273.92
2019-06-10T22:13:22.347Z,100256.36
2019-06-10T22:15:54.794Z,100261.27
2019-06-10T22:18:22.878Z,100256.56
2019-06-10T22:20:57.023Z,100254.08
2019-06-10T22:23:23.245Z,100244.77
2019-06-10T22:25:55.669Z,100248.07
2019-06-10T22:28:22.463Z,100250.88
2019-06-10T22:30:55.680Z,100254.95
2019-06-10T22:33:22.666Z,100259.75
2019-06-10T22:35:55.413Z,100252.77
2019-06-10T22:38:22.280Z,100240.55
2019-06-10T22:40:51.619Z,100254.75
2019-06-10T22:43:23.373Z,100253.06
2019-06-10T22:45:53.834Z,100253.70
2019-06-10T22:48:22.519Z,100248.27
2019-06-10T22:50:51.280Z,100253.34
2019-06-10T22:53:19.845Z,100263.97
2019-06-10T22:55:48.474Z,100268.91
2019-06-10T22:58:17.028Z,100262.95
2019-06-10T23:00:45.695Z,100260.97
2019-06-10T23:03:14.299Z,100261.88
2019-06-10T23:05:43.491Z,100258.97
2019-06-10T23:08:12.796Z,100254.52
2019-06-10T23:10:42.964Z,100259.75
2019-06-10T23:13:13.366Z,100262.47
2019-06-10T23:15:42.870Z,100264.16
2019-06-10T23:18:12.726Z,100271.45
2019-06-10T23:20:42.830Z,100279.64
2019-06-10T23:23:12.649Z,100288.33
2019-06-10T23:25:42.940Z,100289.35
2019-06-10T23:28:13.070Z,100289.41
2019-06-10T23:30:42.620Z,100290.56
2019-06-10T23:33:12.547Z,100286.92
2019-06-10T23:35:42.939Z,100280.96
2019-06-10T23:38:13.275Z,100279.02
2019-06-10T23:40:42.975Z,100275.95
2019-06-10T23:43:13.311Z,100267.46
2019-06-10T23:45:42.397Z,100271.54
2019-06-10T23:48:13.127Z,100272.45
2019-06-10T23:50:43.772Z,100277.36
2019-06-10T23:53:13.073Z,100288.80
2019-06-10T23:55:42.738Z,100299.59
2019-06-10T23:58:12.935Z,100305.05
